sensor_id;sensor_type;location;lat;lon;timestamp;pressure;altitude;pressure_sealevel;temperature;humidity
8705;BME280;4389;41.932;25.904;2023-09-19T00:02:20;-16438.53;;;13.90;94.26
8705;BME280;4389;41.932;25.904;2023-09-19T00:04:49;-16435.88;;;13.80;95.37
8705;BME280;4389;41.932;25.904;2023-09-19T00:07:17;-16435.47;;;13.78;96.57
8705;BME280;4389;41.932;25.904;2023-09-19T00:09:44;-16432.41;;;13.67;96.82
8705;BME280;4389;41.932;25.904;2023-09-19T00:12:11;-16431.88;;;13.65;96.84
8705;BME280;4389;41.932;25.904;2023-09-19T00:14:38;-16433.22;;;13.70;96.71
8705;BME280;4389;41.932;25.904;2023-09-19T00:17:05;-16432.41;;;13.67;96.43
8705;BME280;4389;41.932;25.904;2023-09-19T00:19:33;-16435.88;;;13.80;96.20
8705;BME280;4389;41.932;25.904;2023-09-19T00:22:02;-16437.72;;;13.87;95.31
8705;BME280;4389;41.932;25.904;2023-09-19T00:24:29;-16437.47;;;13.86;95.79
8705;BME280;4389;41.932;25.904;2023-09-19T00:26:56;-16436.94;;;13.84;94.84
8705;BME280;4389;41.932;25.904;2023-09-19T00:29:25;-16437.72;;;13.87;94.32
8705;BME280;4389;41.932;25.904;2023-09-19T00:31:55;-16437.47;;;13.86;94.36
8705;BME280;4389;41.932;25.904;2023-09-19T00:34:22;-16439.19;;;13.92;93.81
8705;BME280;4389;41.932;25.904;2023-09-19T00:36:50;-16436.94;;;13.84;94.19
8705;BME280;4389;41.932;25.904;2023-09-19T00:39:20;-16439.31;;;13.93;94.09
8705;BME280;4389;41.932;25.904;2023-09-19T00:41:47;-16440.78;;;13.98;93.74
8705;BME280;4389;41.932;25.904;2023-09-19T00:44:15;-16438.28;;;13.89;94.86
8705;BME280;4389;41.932;25.904;2023-09-19T00:46:43;-16429.25;;;13.55;95.76
8705;BME280;4389;41.932;25.904;2023-09-19T00:49:13;-16427.50;;;13.49;96.80
8705;BME280;4389;41.932;25.904;2023-09-19T00:51:41;-16426.31;;;13.44;98.27
8705;BME280;4389;41.932;25.904;2023-09-19T00:54:11;-16432.97;;;13.69;97.70
8705;BME280;4389;41.932;25.904;2023-09-19T00:56:45;-16432.81;;;13.68;97.00
8705;BME280;4389;41.932;25.904;2023-09-19T00:59:14;-16436.41;;;13.82;96.21
8705;BME280;4389;41.932;25.904;2023-09-19T01:01:41;-16436.66;;;13.83;95.13
8705;BME280;4389;41.932;25.904;2023-09-19T01:04:11;-16433.47;;;13.71;95.06
8705;BME280;4389;41.932;25.904;2023-09-19T01:06:39;-16429.25;;;13.55;95.48
8705;BME280;4389;41.932;25.904;2023-09-19T01:09:05;-16427.13;;;13.47;95.59
8705;BME280;4389;41.932;25.904;2023-09-19T01:11:37;-16426.03;;;13.43;96.41
8705;BME280;4389;41.932;25.904;2023-09-19T01:14:15;-16421.00;;;13.24;97.07
8705;BME280;4389;41.932;25.904;2023-09-19T01:16:48;-16423.13;;;13.32;97.63
8705;BME280;4389;41.932;25.904;2023-09-19T01:19:33;-16421.94;;;13.28;97.51
8705;BME280;4389;41.932;25.904;2023-09-19T01:22:10;-16423.25;;;13.33;97.67
8705;BME280;4389;41.932;25.904;2023-09-19T01:25:05;-16419.69;;;13.19;97.47
8705;BME280;4389;41.932;25.904;2023-09-19T01:27:53;-16419.53;;;13.19;97.76
8705;BME280;4389;41.932;25.904;2023-09-19T01:30:32;-16423.41;;;13.33;97.46
8705;BME280;4389;41.932;25.904;2023-09-19T01:33:03;-16424.19;;;13.36;97.62
8705;BME280;4389;41.932;25.904;2023-09-19T01:35:31;-16422.47;;;13.30;98.04
8705;BME280;4389;41.932;25.904;2023-09-19T01:37:59;-16422.59;;;13.30;98.22
8705;BME280;4389;41.932;25.904;2023-09-19T01:40:26;-16420.59;;;13.23;97.98
8705;BME280;4389;41.932;25.904;2023-09-19T01:42:57;-16420.22;;;13.21;98.93
8705;BME280;4389;41.932;25.904;2023-09-19T01:45:33;-16419.41;;;13.18;99.10
8705;BME280;4389;41.932;25.904;2023-09-19T01:48:08;-16413.84;;;12.97;99.61
8705;BME280;4389;41.932;25.904;2023-09-19T01:50:43;-16409.56;;;12.81;100.00
8705;BME280;4389;41.932;25.904;2023-09-19T01:53:17;-16405.31;;;12.65;100.00
8705;BME280;4389;41.932;25.904;2023-09-19T01:55:48;-16405.59;;;12.66;100.00
8705;BME280;4389;41.932;25.904;2023-09-19T01:58:21;-16404.66;;;12.63;100.00
8705;BME280;4389;41.932;25.904;2023-09-19T02:00:50;-16404.53;;;12.62;100.00
8705;BME280;4389;41.932;25.904;2023-09-19T02:03:20;-16402.41;;;12.54;100.00
8705;BME280;4389;41.932;25.904;2023-09-19T02:05:49;-16401.59;;;12.51;100.00
8705;BME280;4389;41.932;25.904;2023-09-19T02:08:17;-16404.38;;;12.62;100.00
8705;BME280;4389;41.932;25.904;2023-09-19T02:10:44;-16405.59;;;12.66;100.00
8705;BME280;4389;41.932;25.904;2023-09-19T02:13:15;-16404.00;;;12.60;100.00
8705;BME280;4389;41.932;25.904;2023-09-19T02:15:44;-16410.38;;;12.84;100.00
8705;BME280;4389;41.932;25.904;2023-09-19T02:18:13;-16412.22;;;12.91;100.00
8705;BME280;4389;41.932;25.904;2023-09-19T02:20:40;-16409.56;;;12.81;100.00
8705;BME280;4389;41.932;25.904;2023-09-19T02:23:07;-16413.28;;;12.95;100.00
8705;BME280;4389;41.932;25.904;2023-09-19T02:25:34;-16420.34;;;13.22;100.00
8705;BME280;4389;41.932;25.904;2023-09-19T02:28:04;-16423.25;;;13.33;100.00
8705;BME280;4389;41.932;25.904;2023-09-19T02:30:31;-16424.44;;;13.37;99.97
8705;BME280;4389;41.932;25.904;2023-09-19T02:32:58;-16422.06;;;13.28;100.00
8705;BME280;4389;41.932;25.904;2023-09-19T02:35:28;-16420.72;;;13.23;100.00
8705;BME280;4389;41.932;25.904;2023-09-19T02:37:58;-16419.69;;;13.19;99.38
8705;BME280;4389;41.932;25.904;2023-09-19T02:40:25;-16417.28;;;13.10;99.58
8705;BME280;4389;41.932;25.904;2023-09-19T02:42:54;-16415.69;;;13.04;99.99
8705;BME280;4389;41.932;25.904;2023-09-19T02:45:24;-16414.50;;;13.00;99.86
8705;BME280;4389;41.932;25.904;2023-09-19T02:47:51;-16410.91;;;12.86;99.99
8705;BME280;4389;41.932;25.904;2023-09-19T02:50:18;-16408.50;;;12.77;100.00
8705;BME280;4389;41.932;25.904;2023-09-19T02:52:47;-16411.16;;;12.87;100.00
8705;BME280;4389;41.932;25.904;2023-09-19T02:55:15;-16412.50;;;12.92;100.00
8705;BME280;4389;41.932;25.904;2023-09-19T02:57:46;-16413.03;;;12.94;99.69
8705;BME280;4389;41.932;25.904;2023-09-19T03:00:13;-16415.41;;;13.03;99.38
8705;BME280;4389;41.932;25.904;2023-09-19T03:02:40;-16417.28;;;13.10;98.23
8705;BME280;4389;41.932;25.904;2023-09-19T03:05:08;-16415.69;;;13.04;97.82
8705;BME280;4389;41.932;25.904;2023-09-19T03:07:37;-16415.41;;;13.03;97.48
8705;BME280;4389;41.932;25.904;2023-09-19T03:10:06;-16411.97;;;12.90;98.28
8705;BME280;4389;41.932;25.904;2023-09-19T03:12:34;-16409.84;;;12.82;98.53
8705;BME280;4389;41.932;25.904;2023-09-19T03:15:01;-16409.56;;;12.81;98.65
8705;BME280;4389;41.932;25.904;2023-09-19T03:17:28;-16409.44;;;12.81;99.03
8705;BME280;4389;41.932;25.904;2023-09-19T03:19:55;-16406.66;;;12.70;99.55
8705;BME280;4389;41.932;25.904;2023-09-19T03:22:22;-16411.44;;;12.88;99.61
8705;BME280;4389;41.932;25.904;2023-09-19T03:24:50;-16411.16;;;12.87;99.37
8705;BME280;4389;41.932;25.904;2023-09-19T03:27:19;-16408.78;;;12.78;100.00
8705;BME280;4389;41.932;25.904;2023-09-19T03:29:46;-16405.31;;;12.65;100.00
8705;BME280;4389;41.932;25.904;2023-09-19T03:32:13;-16405.06;;;12.64;100.00
8705;BME280;4389;41.932;25.904;2023-09-19T03:34:40;-16401.34;;;12.50;100.00
8705;BME280;4389;41.932;25.904;2023-09-19T03:37:08;-16401.88;;;12.52;100.00
8705;BME280;4389;41.932;25.904;2023-09-19T03:39:35;-16400.81;;;12.48;100.00
8705;BME280;4389;41.932;25.904;2023-09-19T03:42:03;-16400.00;;;12.45;100.00
8705;BME280;4389;41.932;25.904;2023-09-19T03:44:32;-16401.88;;;12.52;100.00
8705;BME280;4389;41.932;25.904;2023-09-19T03:46:58;-16403.59;;;12.59;100.00
8705;BME280;4389;41.932;25.904;2023-09-19T03:49:25;-16403.19;;;12.57;100.00
8705;BME280;4389;41.932;25.904;2023-09-19T03:51:53;-16404.91;;;12.64;99.97
8705;BME280;4389;41.932;25.904;2023-09-19T03:54:20;-16402.94;;;12.56;99.01
8705;BME280;4389;41.932;25.904;2023-09-19T03:56:46;-16402.00;;;12.53;98.95
8705;BME280;4389;41.932;25.904;2023-09-19T03:59:13;-16401.06;;;12.49;99.28
8705;BME280;4389;41.932;25.904;2023-09-19T04:01:41;-16402.41;;;12.54;99.05
8705;BME280;4389;41.932;25.904;2023-09-19T04:04:08;-16402.41;;;12.54;98.88
8705;BME280;4389;41.932;25.904;2023-09-19T04:06:35;-16398.69;;;12.40;99.72
8705;BME280;4389;41.932;25.904;2023-09-19T04:09:02;-16396.81;;;12.33;100.00
8705;BME280;4389;41.932;25.904;2023-09-19T04:11:32;-16398.41;;;12.39;99.89
8705;BME280;4389;41.932;25.904;2023-09-19T04:13:59;-16402.13;;;12.53;99.66
8705;BME280;4389;41.932;25.904;2023-09-19T04:16:26;-16401.88;;;12.52;98.71
8705;BME280;4389;41.932;25.904;2023-09-19T04:18:54;-16403.19;;;12.57;98.34
8705;BME280;4389;41.932;25.904;2023-09-19T04:21:20;-16396.81;;;12.33;99.19
8705;BME280;4389;41.932;25.904;2023-09-19T04:23:47;-16401.19;;;12.50;99.04
8705;BME280;4389;41.932;25.904;2023-09-19T04:26:14;-16402.41;;;12.54;98.67
8705;BME280;4389;41.932;25.904;2023-09-19T04:28:43;-16407.06;;;12.72;99.21
8705;BME280;4389;41.932;25.904;2023-09-19T04:31:09;-16411.97;;;12.90;98.17
8705;BME280;4389;41.932;25.904;2023-09-19T04:33:37;-16416.22;;;13.06;97.78
8705;BME280;4389;41.932;25.904;2023-09-19T04:36:05;-16419.69;;;13.19;97.15
8705;BME280;4389;41.932;25.904;2023-09-19T04:38:33;-16420.59;;;13.23;96.33
8705;BME280;4389;41.932;25.904;2023-09-19T04:41:00;-16414.38;;;12.99;96.98
8705;BME280;4389;41.932;25.904;2023-09-19T04:43:27;-16416.75;;;13.08;97.59
8705;BME280;4389;41.932;25.904;2023-09-19T04:45:54;-16418.09;;;13.13;97.17
8705;BME280;4389;41.932;25.904;2023-09-19T04:48:21;-16418.09;;;13.13;96.85
8705;BME280;4389;41.932;25.904;2023-09-19T04:50:49;-16417.00;;;13.09;97.71
8705;BME280;4389;41.932;25.904;2023-09-19T04:53:18;-16423.94;;;13.35;97.60
8705;BME280;4389;41.932;25.904;2023-09-19T04:55:50;-16427.38;;;13.48;96.74
8705;BME280;4389;41.932;25.904;2023-09-19T04:58:17;-16426.72;;;13.46;96.44
8705;BME280;4389;41.932;25.904;2023-09-19T05:00:45;-16430.28;;;13.59;95.71
8705;BME280;4389;41.932;25.904;2023-09-19T05:03:11;-16436.13;;;13.81;94.98
8705;BME280;4389;41.932;25.904;2023-09-19T05:05:38;-16437.88;;;13.87;95.16
8705;BME280;4389;41.932;25.904;2023-09-19T05:08:06;-16441.72;;;14.02;94.98
8705;BME280;4389;41.932;25.904;2023-09-19T05:10:36;-16442.50;;;14.05;95.03
8705;BME280;4389;41.932;25.904;2023-09-19T05:13:03;-16444.38;;;14.12;95.51
8705;BME280;4389;41.932;25.904;2023-09-19T05:15:30;-16448.09;;;14.26;95.39
8705;BME280;4389;41.932;25.904;2023-09-19T05:17:57;-16455.25;;;14.53;95.40
8705;BME280;4389;41.932;25.904;2023-09-19T05:20:25;-16459.38;;;14.68;94.59
8705;BME280;4389;41.932;25.904;2023-09-19T05:22:58;-16464.03;;;14.86;93.90
8705;BME280;4389;41.932;25.904;2023-09-19T05:25:27;-16466.13;;;14.94;93.88
8705;BME280;4389;41.932;25.904;2023-09-19T05:27:57;-16469.47;;;15.06;93.28
8705;BME280;4389;41.932;25.904;2023-09-19T05:30:25;-16475.56;;;15.29;93.08
8705;BME280;4389;41.932;25.904;2023-09-19T05:32:54;-16481.66;;;15.52;92.14
8705;BME280;4389;41.932;25.904;2023-09-19T05:35:21;-16485.53;;;15.67;91.77
8705;BME280;4389;41.932;25.904;2023-09-19T05:37:50;-16491.34;;;15.89;91.04
8705;BME280;4389;41.932;25.904;2023-09-19T05:40:17;-16495.19;;;16.03;90.61
8705;BME280;4389;41.932;25.904;2023-09-19T05:42:44;-16498.50;;;16.16;90.41
8705;BME280;4389;41.932;25.904;2023-09-19T05:45:13;-16500.91;;;16.25;90.43
8705;BME280;4389;41.932;25.904;2023-09-19T05:47:44;-16505.94;;;16.44;90.85
8705;BME280;4389;41.932;25.904;2023-09-19T05:50:12;-16512.69;;;16.69;89.83
8705;BME280;4389;41.932;25.904;2023-09-19T05:52:40;-16517.88;;;16.89;88.66
8705;BME280;4389;41.932;25.904;2023-09-19T05:55:09;-16520.53;;;16.99;88.42
8705;BME280;4389;41.932;25.904;2023-09-19T05:57:37;-16524.38;;;17.13;87.51
8705;BME280;4389;41.932;25.904;2023-09-19T06:00:05;-16525.31;;;17.17;88.11
8705;BME280;4389;41.932;25.904;2023-09-19T06:02:37;-16528.47;;;17.29;87.77
8705;BME280;4389;41.932;25.904;2023-09-19T06:05:04;-16528.09;;;17.27;88.28
8705;BME280;4389;41.932;25.904;2023-09-19T06:07:35;-16529.81;;;17.34;87.49
8705;BME280;4389;41.932;25.904;2023-09-19T06:10:03;-16532.19;;;17.43;87.43
8705;BME280;4389;41.932;25.904;2023-09-19T06:12:32;-16534.84;;;17.53;87.26
8705;BME280;4389;41.932;25.904;2023-09-19T06:15:03;-16537.50;;;17.63;86.66
8705;BME280;4389;41.932;25.904;2023-09-19T06:17:31;-16542.66;;;17.82;86.22
8705;BME280;4389;41.932;25.904;2023-09-19T06:19:59;-16542.25;;;17.81;84.99
8705;BME280;4389;41.932;25.904;2023-09-19T06:22:27;-16544.66;;;17.90;85.06
8705;BME280;4389;41.932;25.904;2023-09-19T06:24:54;-16546.50;;;17.97;84.16
8705;BME280;4389;41.932;25.904;2023-09-19T06:27:21;-16549.53;;;18.08;84.08
8705;BME280;4389;41.932;25.904;2023-09-19T06:29:48;-16555.50;;;18.31;84.50
8705;BME280;4389;41.932;25.904;2023-09-19T06:32:15;-16561.34;;;18.53;82.96
8705;BME280;4389;41.932;25.904;2023-09-19T06:34:42;-16563.84;;;18.62;82.11
8705;BME280;4389;41.932;25.904;2023-09-19T06:37:13;-16568.50;;;18.80;81.70
8705;BME280;4389;41.932;25.904;2023-09-19T06:39:40;-16574.19;;;19.01;80.18
8705;BME280;4389;41.932;25.904;2023-09-19T06:42:07;-16579.09;;;19.19;80.51
8705;BME280;4389;41.932;25.904;2023-09-19T06:44:34;-16579.88;;;19.22;79.92
8705;BME280;4389;41.932;25.904;2023-09-19T06:47:01;-16583.06;;;19.34;80.35
8705;BME280;4389;41.932;25.904;2023-09-19T06:49:28;-16586.09;;;19.46;79.41
8705;BME280;4389;41.932;25.904;2023-09-19T06:51:56;-16589.16;;;19.57;78.94
8705;BME280;4389;41.932;25.904;2023-09-19T06:54:25;-16589.94;;;19.60;78.27
8705;BME280;4389;41.932;25.904;2023-09-19T06:56:56;-16590.72;;;19.63;78.67
8705;BME280;4389;41.932;25.904;2023-09-19T06:59:23;-16597.34;;;19.88;77.84
8705;BME280;4389;41.932;25.904;2023-09-19T07:01:50;-16599.88;;;19.98;76.48
8705;BME280;4389;41.932;25.904;2023-09-19T07:04:17;-16606.22;;;20.22;76.00
8705;BME280;4389;41.932;25.904;2023-09-19T07:06:49;-16612.16;;;20.44;74.49
8705;BME280;4389;41.932;25.904;2023-09-19T07:09:16;-16619.31;;;20.71;74.37
8705;BME280;4389;41.932;25.904;2023-09-19T07:11:46;-16623.53;;;20.87;73.86
8705;BME280;4389;41.932;25.904;2023-09-19T07:14:13;-16625.94;;;20.96;72.50
8705;BME280;4389;41.932;25.904;2023-09-19T07:16:40;-16628.97;;;21.08;71.64
8705;BME280;4389;41.932;25.904;2023-09-19T07:19:10;-16630.28;;;21.13;72.00
8705;BME280;4389;41.932;25.904;2023-09-19T07:21:36;-16629.09;;;21.08;71.24
8705;BME280;4389;41.932;25.904;2023-09-19T07:24:04;-16631.47;;;21.17;71.44
8705;BME280;4389;41.932;25.904;2023-09-19T07:26:33;-16632.66;;;21.22;71.68
8705;BME280;4389;41.932;25.904;2023-09-19T07:29:01;-16635.56;;;21.33;70.70
8705;BME280;4389;41.932;25.904;2023-09-19T07:31:29;-16638.09;;;21.42;70.21
8705;BME280;4389;41.932;25.904;2023-09-19T07:33:56;-16642.31;;;21.58;70.00
8705;BME280;4389;41.932;25.904;2023-09-19T07:36:23;-16638.63;;;21.44;69.57
8705;BME280;4389;41.932;25.904;2023-09-19T07:38:50;-16638.34;;;21.43;70.17
8705;BME280;4389;41.932;25.904;2023-09-19T07:41:16;-16639.53;;;21.48;69.80
8705;BME280;4389;41.932;25.904;2023-09-19T07:43:43;-16639.41;;;21.47;69.94
8705;BME280;4389;41.932;25.904;2023-09-19T07:46:11;-16640.59;;;21.52;69.82
8705;BME280;4389;41.932;25.904;2023-09-19T07:48:38;-16641.00;;;21.53;69.25
8705;BME280;4389;41.932;25.904;2023-09-19T07:51:07;-16645.50;;;21.70;68.29
8705;BME280;4389;41.932;25.904;2023-09-19T07:53:34;-16645.22;;;21.69;67.87
8705;BME280;4389;41.932;25.904;2023-09-19T07:56:05;-16650.00;;;21.87;67.88
8705;BME280;4389;41.932;25.904;2023-09-19T07:58:32;-16652.63;;;21.97;67.56
8705;BME280;4389;41.932;25.904;2023-09-19T08:01:03;-16655.53;;;22.08;66.57
8705;BME280;4389;41.932;25.904;2023-09-19T08:03:32;-16659.25;;;22.22;66.30
8705;BME280;4389;41.932;25.904;2023-09-19T08:05:58;-16662.53;;;22.35;65.30
8705;BME280;4389;41.932;25.904;2023-09-19T08:08:26;-16662.53;;;22.35;65.25
8705;BME280;4389;41.932;25.904;2023-09-19T08:10:53;-16664.78;;;22.43;64.72
8705;BME280;4389;41.932;25.904;2023-09-19T08:13:22;-16670.34;;;22.64;63.02
8705;BME280;4389;41.932;25.904;2023-09-19T08:15:49;-16670.19;;;22.64;62.36
8705;BME280;4389;41.932;25.904;2023-09-19T08:18:18;-16671.94;;;22.70;61.11
8705;BME280;4389;41.932;25.904;2023-09-19T08:20:51;-16671.25;;;22.68;58.48
8705;BME280;4389;41.932;25.904;2023-09-19T08:23:19;-16676.94;;;22.89;58.85
8705;BME280;4389;41.932;25.904;2023-09-19T08:25:47;-16683.00;;;23.12;57.58
8705;BME280;4389;41.932;25.904;2023-09-19T08:28:14;-16685.91;;;23.23;55.12
8705;BME280;4389;41.932;25.904;2023-09-19T08:30:45;-16689.34;;;23.36;54.30
8705;BME280;4389;41.932;25.904;2023-09-19T08:33:11;-16690.53;;;23.41;52.40
8705;BME280;4389;41.932;25.904;2023-09-19T08:35:40;-16695.56;;;23.60;51.32
8705;BME280;4389;41.932;25.904;2023-09-19T08:38:10;-16697.28;;;23.66;52.17
8705;BME280;4389;41.932;25.904;2023-09-19T08:40:37;-16698.06;;;23.69;53.26
8705;BME280;4389;41.932;25.904;2023-09-19T08:43:05;-16702.03;;;23.84;52.93
8705;BME280;4389;41.932;25.904;2023-09-19T08:45:32;-16703.63;;;23.90;53.42
8705;BME280;4389;41.932;25.904;2023-09-19T08:48:09;-16704.94;;;23.95;53.68
8705;BME280;4389;41.932;25.904;2023-09-19T08:50:45;-16712.06;;;24.22;53.42
8705;BME280;4389;41.932;25.904;2023-09-19T08:53:24;-16717.34;;;24.42;53.07
8705;BME280;4389;41.932;25.904;2023-09-19T08:55:53;-16720.22;;;24.53;53.04
8705;BME280;4389;41.932;25.904;2023-09-19T08:58:25;-16724.72;;;24.70;52.71
8705;BME280;4389;41.932;25.904;2023-09-19T09:00:56;-16725.78;;;24.74;52.52
8705;BME280;4389;41.932;25.904;2023-09-19T09:03:25;-16727.63;;;24.81;52.10
8705;BME280;4389;41.932;25.904;2023-09-19T09:05:52;-16725.91;;;24.74;52.08
8705;BME280;4389;41.932;25.904;2023-09-19T09:08:20;-16728.28;;;24.83;51.85
8705;BME280;4389;41.932;25.904;2023-09-19T09:10:49;-16730.53;;;24.92;51.38
8705;BME280;4389;41.932;25.904;2023-09-19T09:13:16;-16733.44;;;25.03;51.14
8705;BME280;4389;41.932;25.904;2023-09-19T09:15:44;-16731.72;;;24.96;50.33
8705;BME280;4389;41.932;25.904;2023-09-19T09:18:11;-16731.06;;;24.94;50.89
8705;BME280;4389;41.932;25.904;2023-09-19T09:20:38;-16729.47;;;24.88;51.03
8705;BME280;4389;41.932;25.904;2023-09-19T09:23:05;-16719.31;;;24.49;51.66
8705;BME280;4389;41.932;25.904;2023-09-19T09:25:50;-16718.38;;;24.46;51.40
8705;BME280;4389;41.932;25.904;2023-09-19T09:28:21;-16717.06;;;24.41;51.74
8705;BME280;4389;41.932;25.904;2023-09-19T09:30:49;-16719.72;;;24.51;51.27
8705;BME280;4389;41.932;25.904;2023-09-19T09:33:16;-16718.91;;;24.48;50.80
8705;BME280;4389;41.932;25.904;2023-09-19T09:35:51;-16715.75;;;24.36;51.33
8705;BME280;4389;41.932;25.904;2023-09-19T09:38:23;-16717.34;;;24.42;51.28
8705;BME280;4389;41.932;25.904;2023-09-19T09:40:55;-16725.66;;;24.73;51.41
8705;BME280;4389;41.932;25.904;2023-09-19T09:43:29;-16729.22;;;24.87;51.11
8705;BME280;4389;41.932;25.904;2023-09-19T09:46:10;-16733.44;;;25.03;48.90
8705;BME280;4389;41.932;25.904;2023-09-19T09:48:59;-16732.63;;;25.00;48.21
8705;BME280;4389;41.932;25.904;2023-09-19T09:51:51;-16735.66;;;25.11;46.81
8705;BME280;4389;41.932;25.904;2023-09-19T09:54:25;-16740.56;;;25.30;47.08
8705;BME280;4389;41.932;25.904;2023-09-19T09:57:01;-16745.03;;;25.47;46.00
8705;BME280;4389;41.932;25.904;2023-09-19T09:59:47;-16749.00;;;25.62;45.78
8705;BME280;4389;41.932;25.904;2023-09-19T10:02:15;-16753.72;;;25.80;45.83
8705;BME280;4389;41.932;25.904;2023-09-19T10:04:48;-16756.91;;;25.92;45.35
8705;BME280;4389;41.932;25.904;2023-09-19T10:07:25;-16756.50;;;25.90;45.12
8705;BME280;4389;41.932;25.904;2023-09-19T10:09:55;-16755.84;;;25.88;45.64
8705;BME280;4389;41.932;25.904;2023-09-19T10:12:31;-16758.22;;;25.97;45.06
8705;BME280;4389;41.932;25.904;2023-09-19T10:15:00;-16754.25;;;25.82;44.80
8705;BME280;4389;41.932;25.904;2023-09-19T10:17:30;-16757.28;;;25.93;44.79
8705;BME280;4389;41.932;25.904;2023-09-19T10:20:00;-16758.63;;;25.98;45.68
8705;BME280;4389;41.932;25.904;2023-09-19T10:22:35;-16752.94;;;25.77;46.47
8705;BME280;4389;41.932;25.904;2023-09-19T10:25:04;-16747.00;;;25.54;46.50
8705;BME280;4389;41.932;25.904;2023-09-19T10:27:36;-16745.81;;;25.50;46.10
8705;BME280;4389;41.932;25.904;2023-09-19T10:30:06;-16747.00;;;25.54;46.61
8705;BME280;4389;41.932;25.904;2023-09-19T10:32:35;-16749.78;;;25.65;45.81
8705;BME280;4389;41.932;25.904;2023-09-19T10:35:07;-16752.69;;;25.76;45.27
8705;BME280;4389;41.932;25.904;2023-09-19T10:37:35;-16757.16;;;25.93;45.11
8705;BME280;4389;41.932;25.904;2023-09-19T10:40:06;-16764.00;;;26.19;44.17
8705;BME280;4389;41.932;25.904;2023-09-19T10:42:38;-16770.06;;;26.42;43.87
8705;BME280;4389;41.932;25.904;2023-09-19T10:45:06;-16774.03;;;26.57;43.18
8705;BME280;4389;41.932;25.904;2023-09-19T10:47:38;-16771.13;;;26.46;43.06
8705;BME280;4389;41.932;25.904;2023-09-19T10:50:06;-16774.69;;;26.59;42.69
8705;BME280;4389;41.932;25.904;2023-09-19T10:52:39;-16773.38;;;26.54;43.03
8705;BME280;4389;41.932;25.904;2023-09-19T10:55:08;-16771.41;;;26.47;43.10
8705;BME280;4389;41.932;25.904;2023-09-19T10:57:38;-16768.63;;;26.36;43.37
8705;BME280;4389;41.932;25.904;2023-09-19T11:00:06;-16769.28;;;26.39;42.96
8705;BME280;4389;41.932;25.904;2023-09-19T11:03:19;-16767.03;;;26.30;41.77
8705;BME280;4389;41.932;25.904;2023-09-19T11:06:02;-16770.34;;;26.43;43.22
8705;BME280;4389;41.932;25.904;2023-09-19T11:08:59;-16768.75;;;26.37;42.68
8705;BME280;4389;41.932;25.904;2023-09-19T11:11:49;-16768.50;;;26.36;43.64
8705;BME280;4389;41.932;25.904;2023-09-19T11:14:40;-16768.22;;;26.35;43.49
8705;BME280;4389;41.932;25.904;2023-09-19T11:17:32;-16764.81;;;26.22;43.93
8705;BME280;4389;41.932;25.904;2023-09-19T11:20:23;-16771.41;;;26.47;43.17
8705;BME280;4389;41.932;25.904;2023-09-19T11:23:19;-16781.66;;;26.86;42.97
8705;BME280;4389;41.932;25.904;2023-09-19T11:25:51;-16784.69;;;26.97;42.35
8705;BME280;4389;41.932;25.904;2023-09-19T11:28:33;-16782.47;;;26.89;42.06
8705;BME280;4389;41.932;25.904;2023-09-19T11:34:45;-16773.25;;;26.54;42.48
8705;BME280;4389;41.932;25.904;2023-09-19T11:40:36;-16785.09;;;26.99;41.20
8705;BME280;4389;41.932;25.904;2023-09-19T11:43:27;-16779.56;;;26.78;41.31
8705;BME280;4389;41.932;25.904;2023-09-19T11:46:08;-16784.97;;;26.98;41.04
8705;BME280;4389;41.932;25.904;2023-09-19T11:48:38;-16783.78;;;26.94;40.87
8705;BME280;4389;41.932;25.904;2023-09-19T11:51:15;-16783.50;;;26.93;40.36
8705;BME280;4389;41.932;25.904;2023-09-19T11:53:48;-16790.38;;;27.19;39.85
8705;BME280;4389;41.932;25.904;2023-09-19T11:56:16;-16798.25;;;27.49;40.21
8705;BME280;4389;41.932;25.904;2023-09-19T11:58:48;-16790.50;;;27.19;40.12
8705;BME280;4389;41.932;25.904;2023-09-19T12:01:22;-16790.38;;;27.19;40.21
8705;BME280;4389;41.932;25.904;2023-09-19T12:03:53;-16797.22;;;27.45;39.93
8705;BME280;4389;41.932;25.904;2023-09-19T12:06:24;-16804.84;;;27.74;38.80
8705;BME280;4389;41.932;25.904;2023-09-19T12:08:53;-16807.22;;;27.83;38.09
8705;BME280;4389;41.932;25.904;2023-09-19T12:11:22;-16803.00;;;27.67;38.30
8705;BME280;4389;41.932;25.904;2023-09-19T12:13:50;-16803.78;;;27.70;37.91
8705;BME280;4389;41.932;25.904;2023-09-19T12:16:19;-16806.41;;;27.80;38.20
8705;BME280;4389;41.932;25.904;2023-09-19T12:18:49;-16808.00;;;27.86;38.10
8705;BME280;4389;41.932;25.904;2023-09-19T12:21:28;-16806.69;;;27.81;38.07
8705;BME280;4389;41.932;25.904;2023-09-19T12:24:04;-16812.59;;;28.03;38.41
8705;BME280;4389;41.932;25.904;2023-09-19T12:26:39;-16809.59;;;27.92;38.80
8705;BME280;4389;41.932;25.904;2023-09-19T12:29:12;-16808.53;;;27.88;38.19
8705;BME280;4389;41.932;25.904;2023-09-19T12:31:50;-16807.75;;;27.85;38.40
8705;BME280;4389;41.932;25.904;2023-09-19T12:34:20;-16807.75;;;27.85;37.99
8705;BME280;4389;41.932;25.904;2023-09-19T12:36:49;-16809.31;;;27.91;37.84
8705;BME280;4389;41.932;25.904;2023-09-19T12:39:29;-16820.38;;;28.33;37.36
8705;BME280;4389;41.932;25.904;2023-09-19T12:41:57;-16825.38;;;28.52;37.33
8705;BME280;4389;41.932;25.904;2023-09-19T12:44:24;-16829.59;;;28.68;37.56
8705;BME280;4389;41.932;25.904;2023-09-19T12:46:51;-16828.25;;;28.63;37.02
8705;BME280;4389;41.932;25.904;2023-09-19T12:49:20;-16824.59;;;28.49;36.66
8705;BME280;4389;41.932;25.904;2023-09-19T12:51:54;-16820.25;;;28.32;37.04
8705;BME280;4389;41.932;25.904;2023-09-19T12:54:22;-16815.91;;;28.16;37.46
8705;BME280;4389;41.932;25.904;2023-09-19T12:56:51;-16816.03;;;28.16;37.17
8705;BME280;4389;41.932;25.904;2023-09-19T12:59:29;-16817.75;;;28.23;36.86
8705;BME280;4389;41.932;25.904;2023-09-19T13:02:04;-16824.31;;;28.48;36.81
8705;BME280;4389;41.932;25.904;2023-09-19T13:04:32;-16825.09;;;28.51;35.94
8705;BME280;4389;41.932;25.904;2023-09-19T13:07:07;-16823.00;;;28.43;36.79
8705;BME280;4389;41.932;25.904;2023-09-19T13:09:34;-16823.53;;;28.45;36.09
8705;BME280;4389;41.932;25.904;2023-09-19T13:12:01;-16824.31;;;28.48;36.33
8705;BME280;4389;41.932;25.904;2023-09-19T13:14:30;-16817.22;;;28.21;35.77
8705;BME280;4389;41.932;25.904;2023-09-19T13:17:00;-16820.63;;;28.34;35.25
8705;BME280;4389;41.932;25.904;2023-09-19T13:19:42;-16823.00;;;28.43;34.62
8705;BME280;4389;41.932;25.904;2023-09-19T13:22:37;-16825.63;;;28.53;35.43
8705;BME280;4389;41.932;25.904;2023-09-19T13:25:08;-16828.00;;;28.62;35.02